createdAt,value
2023-03-06T00:02:01.482Z,0.24
2023-03-06T00:04:27.891Z,0.21
2023-03-06T00:06:54.672Z,0.24
2023-03-06T00:09:21.001Z,0.23
2023-03-06T00:11:53.326Z,0.18
2023-03-06T00:14:19.751Z,0.16
2023-03-06T00:16:46.131Z,0.17
2023-03-06T00:19:12.521Z,0.18
2023-03-06T00:21:41.423Z,0.15
2023-03-06T00:24:07.987Z,0.22
2023-03-06T00:26:35.842Z,0.17
2023-03-06T00:29:02.457Z,0.11
2023-03-06T00:31:29.119Z,0.14
2023-03-06T00:33:55.588Z,0.12
2023-03-06T00:36:22.000Z,0.11
2023-03-06T00:38:48.374Z,0.06
2023-03-06T00:41:14.805Z,0.10
2023-03-06T00:43:41.315Z,0.08
2023-03-06T00:46:08.035Z,0.08
2023-03-06T00:48:34.932Z,0.04
2023-03-06T00:51:01.653Z,0.06
2023-03-06T00:53:28.161Z,0.04
2023-03-06T00:55:54.518Z,0.05
2023-03-06T00:58:20.930Z,0.08
2023-03-06T01:00:47.496Z,0.06
2023-03-06T01:03:13.876Z,0.04
2023-03-06T01:05:40.781Z,0.03
2023-03-06T01:08:08.711Z,-0.02
2023-03-06T01:10:39.001Z,0.03
2023-03-06T01:13:05.722Z,-0.03
2023-03-06T01:15:32.545Z,0.00
2023-03-06T01:17:59.022Z,0.03
2023-03-06T01:20:25.504Z,0.05
2023-03-06T01:22:51.915Z,0.00
2023-03-06T01:25:18.408Z,-0.07
2023-03-06T01:27:44.802Z,-0.10
2023-03-06T01:30:11.852Z,-0.13
2023-03-06T01:32:38.438Z,-0.14
2023-03-06T01:35:05.442Z,-0.15
2023-03-06T01:37:32.345Z,-0.09
2023-03-06T01:39:58.715Z,-0.05
2023-03-06T01:42:25.274Z,-0.08
2023-03-06T01:45:13.258Z,-0.09
2023-03-06T01:47:39.749Z,-0.12
2023-03-06T01:50:10.223Z,-0.09
2023-03-06T01:52:43.606Z,-0.12
2023-03-06T01:55:14.736Z,-0.14
2023-03-06T01:57:45.131Z,-0.20
2023-03-06T02:00:17.970Z,-0.21
2023-03-06T02:02:52.762Z,-0.26
2023-03-06T02:05:19.956Z,-0.27
2023-03-06T02:07:47.369Z,-0.27
2023-03-06T02:10:15.402Z,-0.30
2023-03-06T02:12:43.680Z,-0.31
2023-03-06T02:15:12.179Z,-0.35
2023-03-06T02:17:39.272Z,-0.39
2023-03-06T02:20:08.558Z,-0.37
2023-03-06T02:22:45.856Z,-0.38
2023-03-06T02:25:43.517Z,-0.38
2023-03-06T02:28:20.599Z,-0.39
2023-03-06T02:30:48.494Z,-0.42
2023-03-06T02:33:18.183Z,-0.46
2023-03-06T02:36:15.479Z,-0.49
2023-03-06T02:38:49.963Z,-0.43
2023-03-06T02:41:16.798Z,-0.39
2023-03-06T02:43:45.170Z,-0.40
2023-03-06T02:46:11.805Z,-0.36
2023-03-06T02:48:38.296Z,-0.35
2023-03-06T02:51:04.896Z,-0.33
2023-03-06T02:53:31.273Z,-0.39
2023-03-06T02:55:57.634Z,-0.45
2023-03-06T02:58:23.995Z,-0.42
2023-03-06T03:00:50.725Z,-0.40
2023-03-06T03:03:17.714Z,-0.43
2023-03-06T03:05:44.240Z,-0.42
2023-03-06T03:08:10.685Z,-0.44
2023-03-06T03:10:37.067Z,-0.46
2023-03-06T03:13:03.474Z,-0.48
2023-03-06T03:15:30.011Z,-0.45
2023-03-06T03:17:56.430Z,-0.44
2023-03-06T03:20:23.314Z,-0.45
2023-03-06T03:22:55.045Z,-0.48
2023-03-06T03:25:23.736Z,-0.49
2023-03-06T03:27:50.309Z,-0.42
2023-03-06T03:30:16.885Z,-0.43
2023-03-06T03:32:43.695Z,-0.48
2023-03-06T03:35:11.109Z,-0.49
2023-03-06T03:37:38.019Z,-0.51
2023-03-06T03:40:06.555Z,-0.50
2023-03-06T03:42:33.099Z,-0.54
2023-03-06T03:44:59.463Z,-0.55
2023-03-06T03:47:25.902Z,-0.54
2023-03-06T03:49:52.307Z,-0.60
2023-03-06T03:52:18.898Z,-0.58
2023-03-06T03:54:45.313Z,-0.53
2023-03-06T03:57:11.726Z,-0.49
2023-03-06T03:59:38.076Z,-0.44
2023-03-06T04:02:04.931Z,-0.45
2023-03-06T04:04:31.693Z,-0.45
2023-03-06T04:06:58.097Z,-0.43
2023-03-06T04:09:24.525Z,-0.45
2023-03-06T04:11:50.995Z,-0.47
2023-03-06T04:14:17.437Z,-0.47
2023-03-06T04:16:43.829Z,-0.46
2023-03-06T04:19:11.614Z,-0.50
2023-03-06T04:21:38.052Z,-0.54
2023-03-06T04:24:04.989Z,-0.55
2023-03-06T04:26:31.374Z,-0.60
2023-03-06T04:28:58.481Z,-0.60
2023-03-06T04:31:24.942Z,-0.60
2023-03-06T04:33:51.446Z,-0.63
2023-03-06T04:36:36.564Z,-0.63
2023-03-06T04:39:04.046Z,-0.57
2023-03-06T04:41:30.680Z,-0.60
2023-03-06T04:43:57.315Z,-0.61
2023-03-06T04:46:23.673Z,-0.58
2023-03-06T04:48:50.044Z,-0.61
2023-03-06T04:51:16.518Z,-0.64
2023-03-06T04:53:43.070Z,-0.67
2023-03-06T04:56:09.722Z,-0.70
2023-03-06T04:58:36.341Z,-0.67
2023-03-06T05:01:03.241Z,-0.67
2023-03-06T05:03:29.985Z,-0.68
2023-03-06T05:05:56.543Z,-0.69
2023-03-06T05:08:23.823Z,-0.71
2023-03-06T05:10:56.102Z,-0.72
2023-03-06T05:13:22.593Z,-0.75
2023-03-06T05:15:48.982Z,-0.73
2023-03-06T05:18:15.500Z,-0.75
2023-03-06T05:20:41.864Z,-0.79
2023-03-06T05:23:08.500Z,-0.77
2023-03-06T05:25:34.880Z,-0.82
2023-03-06T05:28:01.286Z,-0.76
2023-03-06T05:30:27.638Z,-0.74
2023-03-06T05:32:54.012Z,-0.73
2023-03-06T05:35:23.016Z,-0.77
2023-03-06T05:37:50.014Z,-0.79
2023-03-06T05:40:17.480Z,-0.82
2023-03-06T05:42:44.285Z,-0.81
2023-03-06T05:45:11.477Z,-0.88
2023-03-06T05:47:37.929Z,-0.89
2023-03-06T05:50:05.440Z,-0.86
2023-03-06T05:52:31.858Z,-0.87
2023-03-06T05:54:58.330Z,-0.88
2023-03-06T05:57:24.733Z,-0.89
2023-03-06T05:59:51.238Z,-0.89
2023-03-06T06:02:18.156Z,-0.94
2023-03-06T06:04:44.638Z,-0.91
2023-03-06T06:07:16.689Z,-0.88
2023-03-06T06:09:45.503Z,-0.91
2023-03-06T06:12:13.424Z,-0.87
2023-03-06T06:14:39.933Z,-0.89
2023-03-06T06:17:07.023Z,-0.86
2023-03-06T06:19:33.393Z,-0.87
2023-03-06T06:22:02.503Z,-0.85
2023-03-06T06:24:28.845Z,-0.84
2023-03-06T06:26:57.173Z,-0.82
2023-03-06T06:29:23.976Z,-0.78
2023-03-06T06:31:51.032Z,-0.76
2023-03-06T06:34:18.361Z,-0.74
2023-03-06T06:36:44.751Z,-0.71
2023-03-06T06:39:15.668Z,-0.69
2023-03-06T06:41:59.297Z,-0.66
2023-03-06T06:44:29.027Z,-0.60
2023-03-06T06:47:25.883Z,-0.60
2023-03-06T06:49:41.737Z,-0.52
2023-03-06T06:52:10.260Z,-0.43
2023-03-06T06:54:37.386Z,-0.31
2023-03-06T06:57:03.859Z,-0.26
2023-03-06T06:59:30.227Z,-0.18
2023-03-06T07:01:57.736Z,-0.09
2023-03-06T07:04:24.069Z,-0.05
2023-03-06T07:06:50.437Z,0.02
2023-03-06T07:09:16.954Z,0.03
2023-03-06T07:11:43.632Z,0.07
2023-03-06T07:14:10.201Z,0.13
2023-03-06T07:16:36.638Z,0.16
2023-03-06T07:19:03.135Z,0.27
2023-03-06T07:21:29.829Z,0.36
2023-03-06T07:23:57.444Z,0.41
2023-03-06T07:26:25.883Z,0.43
2023-03-06T07:28:53.599Z,0.43
2023-03-06T07:31:22.578Z,0.45
2023-03-06T07:33:50.440Z,0.51
2023-03-06T07:36:17.002Z,0.57
2023-03-06T07:38:43.472Z,0.60
2023-03-06T07:41:13.372Z,0.62
2023-03-06T07:43:44.085Z,0.68
2023-03-06T07:46:12.668Z,0.70
2023-03-06T07:48:39.701Z,0.75
2023-03-06T07:51:08.499Z,0.84
2023-03-06T07:53:35.622Z,0.86
2023-03-06T07:56:08.477Z,0.90
2023-03-06T07:58:36.386Z,0.92
2023-03-06T08:01:08.196Z,0.98
2023-03-06T08:03:35.061Z,0.99
2023-03-06T08:06:15.660Z,1.00
2023-03-06T08:08:44.306Z,1.04
2023-03-06T08:11:13.021Z,1.06
2023-03-06T08:13:40.140Z,1.10
2023-03-06T08:16:07.317Z,1.07
2023-03-06T08:18:34.351Z,1.10
2023-03-06T08:21:06.120Z,1.12
2023-03-06T08:23:33.278Z,1.16
2023-03-06T08:26:02.337Z,1.19
2023-03-06T08:28:28.877Z,1.24
2023-03-06T08:30:56.027Z,1.32
2023-03-06T08:33:23.339Z,1.35
2023-03-06T08:35:49.726Z,1.37
2023-03-06T08:38:16.247Z,1.35
2023-03-06T08:40:42.768Z,1.46
2023-03-06T08:43:12.987Z,1.55
2023-03-06T08:45:40.793Z,1.59
2023-03-06T08:48:08.368Z,1.64
2023-03-06T08:50:34.970Z,1.72
2023-03-06T08:53:01.506Z,1.71
2023-03-06T08:55:28.212Z,1.76
2023-03-06T08:57:54.894Z,1.72
2023-03-06T09:00:21.610Z,1.70
2023-03-06T09:02:48.101Z,1.78
2023-03-06T09:05:14.487Z,1.84
2023-03-06T09:07:40.842Z,1.93
2023-03-06T09:10:08.403Z,1.95
2023-03-06T09:12:47.378Z,2.04
2023-03-06T09:15:16.309Z,2.01
2023-03-06T09:17:43.050Z,2.00
2023-03-06T09:20:12.340Z,1.97
2023-03-06T09:22:39.061Z,1.97
2023-03-06T09:25:06.502Z,2.00
2023-03-06T09:27:32.963Z,2.07
2023-03-06T09:29:59.372Z,2.15
2023-03-06T09:32:25.812Z,2.16
2023-03-06T09:34:52.374Z,2.15
2023-03-06T09:37:19.279Z,2.23
2023-03-06T09:39:45.613Z,2.32
2023-03-06T09:42:21.598Z,2.43
2023-03-06T09:44:53.869Z,2.60
2023-03-06T09:47:27.347Z,2.67
2023-03-06T09:50:29.488Z,2.75
2023-03-06T09:53:32.933Z,2.91
2023-03-06T09:56:12.248Z,2.96
2023-03-06T09:58:45.225Z,3.03
2023-03-06T10:01:23.556Z,3.13
2023-03-06T10:04:11.377Z,3.18
2023-03-06T10:06:48.015Z,3.24
2023-03-06T10:09:23.084Z,3.26
2023-03-06T10:12:13.860Z,3.30
2023-03-06T10:14:46.658Z,3.36
2023-03-06T10:17:21.289Z,3.41
2023-03-06T10:19:47.853Z,3.45
2023-03-06T10:22:36.143Z,3.51
2023-03-06T10:25:22.159Z,3.61
2023-03-06T10:27:56.099Z,3.86
2023-03-06T10:30:40.725Z,4.04
2023-03-06T10:33:44.723Z,4.11
2023-03-06T10:36:16.011Z,4.26
2023-03-06T10:38:43.118Z,4.38
2023-03-06T10:41:12.364Z,4.46
2023-03-06T10:44:05.801Z,4.37
2023-03-06T10:46:36.674Z,4.44
2023-03-06T10:49:24.861Z,4.44
2023-03-06T10:52:14.445Z,4.50
2023-03-06T10:54:44.116Z,4.58
2023-03-06T10:57:26.445Z,4.75
2023-03-06T11:00:14.117Z,4.67
2023-03-06T11:02:41.118Z,4.56
2023-03-06T11:05:19.831Z,4.59
2023-03-06T11:08:00.176Z,4.59
2023-03-06T11:10:27.857Z,4.77
2023-03-06T11:13:02.954Z,4.77
2023-03-06T11:15:30.324Z,4.76
2023-03-06T11:18:04.798Z,4.80
2023-03-06T11:20:50.871Z,4.75
2023-03-06T11:23:46.448Z,4.78
2023-03-06T11:26:15.808Z,4.80
2023-03-06T11:29:02.829Z,4.75
2023-03-06T11:31:37.617Z,4.83
2023-03-06T11:34:39.351Z,4.85
2023-03-06T11:37:21.802Z,4.83
2023-03-06T11:40:20.934Z,4.82
2023-03-06T11:43:20.868Z,4.91
2023-03-06T11:45:55.483Z,4.94
2023-03-06T11:48:28.562Z,5.02
2023-03-06T11:51:06.639Z,5.08
2023-03-06T11:53:36.894Z,5.08
2023-03-06T11:56:22.689Z,5.00
2023-03-06T11:59:20.383Z,4.84
2023-03-06T12:02:02.125Z,4.79
2023-03-06T12:04:37.700Z,4.73
2023-03-06T12:07:31.134Z,4.75
2023-03-06T12:10:16.358Z,4.82
2023-03-06T12:13:06.951Z,4.78
2023-03-06T12:15:36.230Z,4.76
2023-03-06T12:18:19.431Z,4.80
2023-03-06T12:21:00.088Z,4.84
2023-03-06T12:24:11.202Z,4.93
2023-03-06T12:26:53.474Z,4.97
2023-03-06T12:29:44.170Z,4.88
2023-03-06T12:32:21.008Z,4.80
2023-03-06T12:35:05.984Z,4.85
2023-03-06T12:37:55.943Z,4.74
2023-03-06T12:40:59.621Z,4.73
2023-03-06T12:43:44.407Z,4.82
2023-03-06T12:46:16.446Z,4.72
2023-03-06T12:48:48.289Z,4.70
2023-03-06T12:51:18.184Z,4.58
2023-03-06T12:53:45.301Z,4.47
2023-03-06T12:56:15.924Z,4.31
2023-03-06T12:58:49.393Z,4.29
2023-03-06T13:01:27.746Z,4.10
2023-03-06T13:04:31.868Z,3.99
2023-03-06T13:07:06.944Z,3.97
2023-03-06T13:09:58.548Z,4.00
2023-03-06T13:12:38.595Z,4.05
2023-03-06T13:15:34.870Z,4.17
2023-03-06T13:18:02.598Z,4.17
2023-03-06T13:20:45.117Z,4.21
2023-03-06T13:23:30.123Z,4.06
2023-03-06T13:25:59.634Z,4.13
2023-03-06T13:28:26.099Z,4.24
2023-03-06T13:30:53.366Z,4.17
2023-03-06T13:33:22.577Z,4.06
2023-03-06T13:35:53.435Z,3.98
2023-03-06T13:38:33.903Z,3.81
2023-03-06T13:41:22.246Z,3.81
2023-03-06T13:43:55.613Z,3.67
2023-03-06T13:46:26.779Z,3.64
2023-03-06T13:49:08.425Z,3.58
2023-03-06T13:51:49.407Z,3.50
2023-03-06T13:54:27.801Z,3.34
2023-03-06T13:57:16.034Z,3.14
2023-03-06T14:00:36.965Z,2.97
2023-03-06T14:03:19.545Z,2.84
2023-03-06T14:05:50.701Z,2.83
2023-03-06T14:08:27.558Z,2.83
2023-03-06T14:11:18.967Z,2.78
2023-03-06T14:13:50.521Z,2.72
2023-03-06T14:16:26.930Z,2.70
2023-03-06T14:18:55.828Z,2.73
2023-03-06T14:21:30.768Z,2.75
2023-03-06T14:24:02.350Z,2.77
2023-03-06T14:26:32.756Z,2.72
2023-03-06T14:29:00.738Z,2.75
2023-03-06T14:31:42.725Z,2.73
2023-03-06T14:34:20.056Z,2.72
2023-03-06T14:36:50.266Z,2.76
2023-03-06T14:39:36.118Z,2.77
2023-03-06T14:42:23.867Z,2.76
2023-03-06T14:45:16.939Z,2.76
2023-03-06T14:47:43.479Z,2.86
2023-03-06T14:50:28.027Z,2.89
2023-03-06T14:53:10.519Z,2.95
2023-03-06T14:55:37.517Z,2.96
2023-03-06T14:58:10.953Z,2.95
2023-03-06T15:00:43.475Z,2.99
2023-03-06T15:03:19.660Z,2.98
2023-03-06T15:05:47.376Z,3.07
2023-03-06T15:08:19.345Z,3.04
2023-03-06T15:11:00.726Z,3.07
2023-03-06T15:13:30.043Z,3.12
2023-03-06T15:16:13.595Z,3.14
2023-03-06T15:18:53.995Z,3.18
2023-03-06T15:21:26.325Z,3.14
2023-03-06T15:23:55.078Z,3.11
2023-03-06T15:26:36.894Z,3.07
2023-03-06T15:29:10.333Z,3.01
2023-03-06T15:31:39.325Z,2.91
2023-03-06T15:34:11.536Z,2.88
2023-03-06T15:36:48.425Z,2.90
2023-03-06T15:39:33.261Z,2.93
2023-03-06T15:42:21.113Z,2.92
2023-03-06T15:45:03.136Z,2.90
2023-03-06T15:47:29.571Z,2.90
2023-03-06T15:49:56.887Z,2.93
2023-03-06T15:52:23.714Z,2.91
2023-03-06T15:54:50.281Z,2.96
2023-03-06T15:57:26.043Z,3.00
2023-03-06T15:59:53.458Z,2.96
2023-03-06T16:02:22.080Z,2.93
2023-03-06T16:04:48.615Z,2.92
2023-03-06T16:07:15.550Z,2.85
2023-03-06T16:09:42.899Z,2.87
2023-03-06T16:12:15.316Z,2.92
2023-03-06T16:14:41.844Z,2.83
2023-03-06T16:17:13.402Z,2.85
2023-03-06T16:19:40.420Z,2.90
2023-03-06T16:22:06.798Z,2.91
2023-03-06T16:24:33.168Z,2.85
2023-03-06T16:27:01.738Z,2.82
2023-03-06T16:29:29.282Z,2.84
2023-03-06T16:32:01.603Z,2.76
2023-03-06T16:34:28.036Z,2.73
2023-03-06T16:36:54.539Z,2.76
2023-03-06T16:39:23.509Z,2.68
2023-03-06T16:41:50.253Z,2.64
2023-03-06T16:44:16.607Z,2.66
2023-03-06T16:46:47.933Z,2.66
2023-03-06T16:49:18.785Z,2.61
2023-03-06T16:51:45.377Z,2.60
2023-03-06T16:54:12.606Z,2.60
2023-03-06T16:56:39.039Z,2.60
2023-03-06T16:59:05.480Z,2.56
2023-03-06T17:01:32.150Z,2.55
2023-03-06T17:03:58.729Z,2.51
2023-03-06T17:06:25.108Z,2.53
2023-03-06T17:08:51.650Z,2.51
2023-03-06T17:11:20.227Z,2.49
2023-03-06T17:13:47.921Z,2.53
2023-03-06T17:16:18.488Z,2.49
2023-03-06T17:18:46.131Z,2.46
2023-03-06T17:21:17.456Z,2.43
2023-03-06T17:23:44.500Z,2.36
2023-03-06T17:26:18.721Z,2.41
2023-03-06T17:28:45.804Z,2.37
2023-03-06T17:31:23.131Z,2.34
2023-03-06T17:33:51.368Z,2.31
2023-03-06T17:36:19.172Z,2.30
2023-03-06T17:38:45.834Z,2.27
2023-03-06T17:41:13.112Z,2.20
2023-03-06T17:43:40.183Z,2.18
2023-03-06T17:46:12.083Z,2.11
2023-03-06T17:48:39.483Z,2.01
2023-03-06T17:51:07.412Z,1.96
2023-03-06T17:53:33.902Z,1.92
2023-03-06T17:56:03.648Z,1.83
2023-03-06T17:58:30.106Z,1.80
2023-03-06T18:00:56.465Z,1.81
2023-03-06T18:03:22.899Z,1.77
2023-03-06T18:06:03.684Z,1.78
2023-03-06T18:08:30.990Z,1.70
2023-03-06T18:11:05.263Z,1.70
2023-03-06T18:13:33.576Z,1.68
2023-03-06T18:16:00.692Z,1.66
2023-03-06T18:18:27.652Z,1.62
2023-03-06T18:20:54.147Z,1.63
2023-03-06T18:23:20.632Z,1.63
2023-03-06T18:25:47.377Z,1.60
2023-03-06T18:28:13.784Z,1.59
2023-03-06T18:30:42.254Z,1.61
2023-03-06T18:33:10.140Z,1.62
2023-03-06T18:35:37.428Z,1.59
2023-03-06T18:38:03.885Z,1.54
2023-03-06T18:40:30.482Z,1.54
2023-03-06T18:42:56.889Z,1.55
2023-03-06T18:45:23.313Z,1.54
2023-03-06T18:47:49.734Z,1.52
2023-03-06T18:50:17.513Z,1.50
2023-03-06T18:52:44.281Z,1.43
2023-03-06T18:55:11.006Z,1.46
2023-03-06T18:57:37.535Z,1.46
2023-03-06T19:00:04.707Z,1.43
2023-03-06T19:02:31.430Z,1.45
2023-03-06T19:04:57.898Z,1.40
2023-03-06T19:07:24.752Z,1.46
2023-03-06T19:09:51.336Z,1.46
2023-03-06T19:12:17.855Z,1.43
2023-03-06T19:14:44.612Z,1.42
2023-03-06T19:17:11.092Z,1.42
2023-03-06T19:19:38.874Z,1.43
2023-03-06T19:22:05.274Z,1.36
2023-03-06T19:24:31.619Z,1.43
2023-03-06T19:26:57.985Z,1.37
2023-03-06T19:29:24.497Z,1.40
2023-03-06T19:31:52.058Z,1.40
2023-03-06T19:34:18.654Z,1.35
2023-03-06T19:36:45.062Z,1.35
2023-03-06T19:39:11.472Z,1.32
2023-03-06T19:41:37.874Z,1.32
2023-03-06T19:44:05.764Z,1.30
2023-03-06T19:46:34.056Z,1.27
2023-03-06T19:49:02.609Z,1.27
2023-03-06T19:51:29.539Z,1.23
2023-03-06T19:53:57.304Z,1.23
2023-03-06T19:56:27.262Z,1.28
2023-03-06T19:58:53.644Z,1.29
2023-03-06T20:01:22.227Z,1.28
2023-03-06T20:03:50.589Z,1.24
2023-03-06T20:06:19.539Z,1.23
2023-03-06T20:08:47.139Z,1.22
2023-03-06T20:11:17.933Z,1.22
2023-03-06T20:13:47.428Z,1.20
2023-03-06T20:16:15.073Z,1.21
2023-03-06T20:18:42.101Z,1.20
2023-03-06T20:21:08.802Z,1.21
2023-03-06T20:23:35.504Z,1.24
2023-03-06T20:26:09.301Z,1.29
2023-03-06T20:28:36.596Z,1.32
2023-03-06T20:31:08.529Z,1.28
2023-03-06T20:33:35.209Z,1.28
2023-03-06T20:36:01.838Z,1.31
2023-03-06T20:38:28.741Z,1.25
2023-03-06T20:40:56.091Z,1.29
2023-03-06T20:43:23.361Z,1.28
2023-03-06T20:46:00.973Z,1.30
2023-03-06T20:48:27.561Z,1.28
2023-03-06T20:51:06.314Z,1.29
2023-03-06T20:53:35.039Z,1.27
2023-03-06T20:56:01.408Z,1.22
2023-03-06T20:58:30.071Z,1.23
2023-03-06T21:00:57.669Z,1.25
2023-03-06T21:03:24.867Z,1.24
2023-03-06T21:05:51.352Z,1.27
2023-03-06T21:08:17.798Z,1.25
2023-03-06T21:10:45.481Z,1.18
2023-03-06T21:13:13.866Z,1.20
2023-03-06T21:15:41.547Z,1.20
2023-03-06T21:18:09.289Z,1.16
2023-03-06T21:20:39.303Z,1.19
2023-03-06T21:23:06.087Z,1.17
2023-03-06T21:25:32.484Z,1.15
2023-03-06T21:28:00.098Z,1.14
2023-03-06T21:30:28.446Z,1.14
2023-03-06T21:32:55.402Z,1.12
2023-03-06T21:35:21.835Z,1.09
2023-03-06T21:37:48.363Z,1.06
2023-03-06T21:40:14.822Z,1.11
2023-03-06T21:42:41.583Z,1.05
2023-03-06T21:45:08.475Z,1.06
2023-03-06T21:47:38.890Z,1.07
2023-03-06T21:50:07.218Z,1.13
2023-03-06T21:52:33.743Z,1.10
2023-03-06T21:55:00.501Z,1.07
2023-03-06T21:57:27.073Z,1.05
2023-03-06T21:59:53.452Z,1.01
2023-03-06T22:02:21.734Z,1.02
2023-03-06T22:04:52.739Z,1.01
2023-03-06T22:07:20.199Z,0.98
2023-03-06T22:09:52.272Z,0.99
2023-03-06T22:12:18.707Z,0.96
2023-03-06T22:14:45.132Z,0.99
2023-03-06T22:17:11.560Z,0.92
2023-03-06T22:19:38.005Z,0.94
2023-03-06T22:22:04.835Z,1.04
2023-03-06T22:24:31.924Z,1.00
2023-03-06T22:26:58.486Z,1.01
2023-03-06T22:29:26.078Z,0.94
2023-03-06T22:31:52.955Z,0.96
2023-03-06T22:34:19.512Z,0.99
2023-03-06T22:36:45.974Z,0.97
2023-03-06T22:39:13.406Z,0.93
2023-03-06T22:41:40.261Z,1.01
2023-03-06T22:44:06.684Z,0.96
2023-03-06T22:46:33.251Z,0.92
2023-03-06T22:49:00.582Z,0.98
2023-03-06T22:51:28.120Z,0.94
2023-03-06T22:53:54.562Z,0.99
2023-03-06T22:56:21.837Z,0.90
2023-03-06T22:58:48.592Z,0.86
2023-03-06T23:01:24.981Z,0.89
2023-03-06T23:04:00.578Z,0.80
2023-03-06T23:06:30.852Z,0.78
2023-03-06T23:09:05.705Z,0.76
2023-03-06T23:11:32.741Z,0.76
2023-03-06T23:13:59.214Z,0.75
2023-03-06T23:16:26.093Z,0.72
2023-03-06T23:18:53.286Z,0.80
2023-03-06T23:21:22.626Z,0.77
2023-03-06T23:23:51.581Z,0.85
2023-03-06T23:26:20.314Z,0.86
2023-03-06T23:28:47.782Z,0.85
2023-03-06T23:31:17.422Z,0.86
2023-03-06T23:33:43.967Z,0.90
2023-03-06T23:36:13.411Z,0.89
2023-03-06T23:38:40.549Z,0.92
2023-03-06T23:41:18.257Z,0.88
2023-03-06T23:43:46.508Z,0.84
2023-03-06T23:46:13.236Z,0.87
2023-03-06T23:48:41.103Z,0.88
2023-03-06T23:51:19.788Z,0.87
2023-03-06T23:53:47.302Z,0.94
2023-03-06T23:56:14.111Z,0.94
2023-03-06T23:58:40.859Z,0.91
